Time;durP1;ratioP1;P1;durP2;ratioP2;P2;SDS_P1;SDS_P2;PMS_P1;PMS_P2;Temp;Humidity;BMP_temperature;BMP_pressure;BME280_temperature;BME280_humidity;BME280_pressure;Samples;Min_cycle;Max_cycle;Signal;HPM_P1;HPM_P2
2022/01/26 00:00:05;;;;;;;;;;;;;;;2.57;77.45;102588.94;5032960;27;19910;-69
2022/01/26 00:07:59;;;;;;;;;;;;;;;2.53;77.13;102579.47;5036657;27;20350;-69
2022/01/26 00:10:24;;;;;;;;;;;;;;;2.54;77.43;102586.41;5013000;27;20662;-69
2022/01/26 00:12:49;;;;;;;;;;;;;;;2.58;77.91;102587.19;5050900;27;19903;-69
2022/01/26 00:15:15;;;;;;;;;;;;;;;2.60;77.92;102582.78;5031503;27;19915;-69
2022/01/26 00:17:40;;;;;;;;;;;;;;;2.60;78.17;102574.94;5014226;27;19917;-68
2022/01/26 00:27:52;;;;;;;;;;;;;;;2.73;77.64;102571.09;5033895;27;19986;-68
2022/01/26 00:38:32;;;;;;;;;;;;;;;2.61;78.33;102567.97;5039086;27;20103;-69
2022/01/26 00:38:42;;;;;;;;;;;;;;;2.74;77.85;102587.66;5016002;27;20388;-69
2022/01/26 00:41:12;;;;;;;;;;;;;;;2.67;78.13;102576.50;5015387;27;19956;-69
2022/01/26 00:43:38;;;;;;;;;;;;;;;2.56;78.37;102578.53;5011459;27;19918;-68
2022/01/26 00:46:06;;;;;;;;;;;;;;;2.74;77.95;102575.44;5010606;27;19931;-70
2022/01/26 00:48:32;;;;;;;;;;;;;;;2.81;77.73;102583.13;5014239;27;20690;-70
2022/01/26 00:51:00;;;;;;;;;;;;;;;2.72;78.20;102587.72;5021847;27;20043;-70
2022/01/26 00:53:32;;;;;;;;;;;;;;;2.65;78.50;102586.16;5030504;27;19916;-66
2022/01/26 00:55:57;;;;;;;;;;;;;;;2.60;78.75;102595.00;5032598;27;19930;-67
2022/01/26 00:58:22;;;;;;;;;;;;;;;2.68;78.34;102586.06;5048806;27;20652;-68
2022/01/26 01:00:48;;;;;;;;;;;;;;;2.83;78.17;102586.56;5050954;27;19911;-67
2022/01/26 01:03:13;;;;;;;;;;;;;;;2.77;78.39;102581.50;5048991;27;19912;-67
2022/01/26 01:05:48;;;;;;;;;;;;;;;2.77;78.09;102592.81;5031243;27;20844;-68
2022/01/26 01:08:17;;;;;;;;;;;;;;;2.84;77.81;102585.66;5031605;27;19923;-68
2022/01/26 01:10:45;;;;;;;;;;;;;;;2.84;77.51;102576.06;5030044;27;19919;-68
2022/01/26 01:13:15;;;;;;;;;;;;;;;2.78;77.68;102578.84;5032156;27;19907;-68
2022/01/26 01:15:41;;;;;;;;;;;;;;;2.70;78.25;102579.03;5048202;27;19911;-68
2022/01/26 01:18:13;;;;;;;;;;;;;;;2.83;78.19;102582.16;5013584;27;19914;-68
2022/01/26 01:20:59;;;;;;;;;;;;;;;2.75;78.01;102574.53;5012240;27;19914;-69
2022/01/26 01:23:46;;;;;;;;;;;;;;;2.68;77.25;102578.22;5050212;27;20118;-68
2022/01/26 01:31:16;;;;;;;;;;;;;;;2.72;76.52;102569.41;5038029;27;19922;-68
2022/01/26 01:33:47;;;;;;;;;;;;;;;2.69;75.64;102569.50;5011974;27;20237;-68
2022/01/26 01:36:13;;;;;;;;;;;;;;;2.75;75.10;102571.94;5011434;27;19940;-69
2022/01/26 01:38:42;;;;;;;;;;;;;;;2.70;75.77;102571.19;5012682;27;19938;-69
2022/01/26 01:41:07;;;;;;;;;;;;;;;2.70;75.30;102576.41;5029909;27;20984;-69
2022/01/26 01:43:33;;;;;;;;;;;;;;;2.74;75.67;102578.06;5031966;27;19907;-67
2022/01/26 01:45:58;;;;;;;;;;;;;;;2.79;75.69;102579.69;5002600;27;19988;-70
2022/01/26 01:48:27;;;;;;;;;;;;;;;2.81;75.55;102583.97;4994782;27;20671;-67
2022/01/26 01:50:54;;;;;;;;;;;;;;;2.81;74.97;102583.97;5029905;27;19921;-69
2022/01/26 01:53:19;;;;;;;;;;;;;;;2.79;74.62;102584.91;5029870;27;19987;-69
2022/01/26 01:55:48;;;;;;;;;;;;;;;2.79;74.67;102595.38;5033123;27;20094;-69
2022/01/26 01:58:13;;;;;;;;;;;;;;;2.80;74.99;102579.66;5032877;27;19926;-68
2022/01/26 02:00:38;;;;;;;;;;;;;;;2.78;74.79;102576.22;5033632;27;20877;-68
2022/01/26 02:03:04;;;;;;;;;;;;;;;2.77;75.00;102573.66;5050524;27;20871;-70
2022/01/26 02:05:29;;;;;;;;;;;;;;;2.80;75.23;102584.03;5012122;27;20219;-69
2022/01/26 02:07:54;;;;;;;;;;;;;;;2.83;75.47;102576.94;5013399;27;19918;-69
2022/01/26 02:10:22;;;;;;;;;;;;;;;2.83;75.18;102576.09;5015060;27;19907;-69
2022/01/26 02:12:51;;;;;;;;;;;;;;;2.80;75.19;102568.34;5048099;27;20627;-69
2022/01/26 02:15:22;;;;;;;;;;;;;;;2.90;75.25;102567.19;5029901;27;20350;-69
2022/01/26 02:18:16;;;;;;;;;;;;;;;2.90;74.75;102577.66;5014630;27;19914;-69
2022/01/26 02:55:50;;;;;;;;;;;;;;;2.98;75.34;102552.16;5035527;27;20292;-69
2022/01/26 03:04:23;;;;;;;;;;;;;;;3.00;74.82;102531.19;5027252;27;19963;-69
2022/01/26 03:06:22;;;;;;;;;;;;;;;3.00;74.37;102516.34;5022143;27;19910;-68
2022/01/26 03:08:54;;;;;;;;;;;;;;;3.08;74.08;102522.19;5034876;27;20052;-68
2022/01/26 03:11:21;;;;;;;;;;;;;;;2.97;74.30;102521.66;5016498;27;19930;-71
2022/01/26 03:13:53;;;;;;;;;;;;;;;2.85;74.76;102517.63;5049763;27;20060;-70
2022/01/26 03:16:30;;;;;;;;;;;;;;;2.89;74.93;102516.66;5050784;27;19903;-68
2022/01/26 03:21:32;;;;;;;;;;;;;;;2.90;75.00;102523.56;5049804;27;19956;-67
2022/01/26 03:34:42;;;;;;;;;;;;;;;2.88;75.38;102511.47;5028490;27;20188;-68
2022/01/26 03:37:08;;;;;;;;;;;;;;;2.92;75.19;102513.09;5031840;27;20085;-70
2022/01/26 03:39:41;;;;;;;;;;;;;;;2.87;75.32;102509.75;5015540;27;19903;-67
2022/01/26 03:42:08;;;;;;;;;;;;;;;2.85;75.03;102501.94;5033757;27;19911;-68
2022/01/26 03:44:34;;;;;;;;;;;;;;;2.86;75.05;102495.84;5016234;27;20305;-71
2022/01/26 03:46:59;;;;;;;;;;;;;;;2.90;75.12;102488.75;5033914;27;20800;-69
2022/01/26 03:49:24;;;;;;;;;;;;;;;2.85;74.89;102488.88;5014346;27;19904;-69
2022/01/26 03:51:49;;;;;;;;;;;;;;;2.84;74.99;102483.69;5032361;27;20032;-68
2022/01/26 03:54:16;;;;;;;;;;;;;;;2.84;74.72;102484.53;5040689;27;19911;-68
2022/01/26 03:56:42;;;;;;;;;;;;;;;2.95;74.46;102481.63;5032737;27;20873;-67
2022/01/26 03:59:07;;;;;;;;;;;;;;;2.91;74.73;102477.38;5034905;27;19907;-68
2022/01/26 04:01:33;;;;;;;;;;;;;;;2.91;74.43;102485.22;5035629;27;20855;-67
2022/01/26 04:03:58;;;;;;;;;;;;;;;2.90;74.60;102480.91;5032874;27;19903;-68
2022/01/26 04:06:24;;;;;;;;;;;;;;;2.88;74.73;102474.88;5031910;27;19944;-69
2022/01/26 04:08:49;;;;;;;;;;;;;;;2.83;74.17;102474.97;5032143;27;19923;-69
2022/01/26 04:11:33;;;;;;;;;;;;;;;2.89;74.69;102468.72;5013524;27;19926;-69
2022/01/26 04:13:59;;;;;;;;;;;;;;;2.84;74.13;102475.84;5017155;27;20140;-69
2022/01/26 04:16:24;;;;;;;;;;;;;;;2.84;73.95;102483.69;5017466;27;19903;-69
2022/01/26 04:18:50;;;;;;;;;;;;;;;2.91;73.85;102474.78;5014357;27;19907;-69
2022/01/26 04:24:04;;;;;;;;;;;;;;;2.88;73.62;102488.78;5033641;27;19915;-68
2022/01/26 04:26:43;;;;;;;;;;;;;;;2.90;73.02;102499.19;5033025;27;20272;-68
2022/01/26 04:29:14;;;;;;;;;;;;;;;2.84;72.86;102494.16;5015540;27;20063;-67
2022/01/26 04:31:39;;;;;;;;;;;;;;;2.84;73.08;102492.38;5036775;27;20096;-70
2022/01/26 04:34:04;;;;;;;;;;;;;;;2.83;73.09;102495.91;4998734;27;19904;-69
2022/01/26 04:36:39;;;;;;;;;;;;;;;2.74;73.45;102481.31;5004470;27;19911;-69
2022/01/26 04:39:09;;;;;;;;;;;;;;;2.84;73.97;102478.47;5028783;27;19912;-68
2022/01/26 04:41:55;;;;;;;;;;;;;;;2.86;73.41;102492.34;5050744;27;19922;-69
2022/01/26 04:44:27;;;;;;;;;;;;;;;2.80;74.06;102485.53;5047640;27;19907;-68
2022/01/26 04:46:53;;;;;;;;;;;;;;;2.90;74.16;102483.50;5048721;27;20309;-68
2022/01/26 04:49:18;;;;;;;;;;;;;;;2.86;73.62;102494.94;5049063;27;19922;-68
2022/01/26 04:51:43;;;;;;;;;;;;;;;2.91;73.50;102493.06;5038370;27;20135;-66
2022/01/26 04:54:08;;;;;;;;;;;;;;;2.96;72.96;102485.97;5030809;27;20881;-68
2022/01/26 04:56:34;;;;;;;;;;;;;;;2.98;72.96;102480.69;5030224;27;20330;-68
2022/01/26 04:58:59;;;;;;;;;;;;;;;2.83;73.29;102487.22;5033159;27;19959;-68
2022/01/26 05:01:24;;;;;;;;;;;;;;;2.75;73.72;102495.28;5035649;27;20020;-68
2022/01/26 05:03:49;;;;;;;;;;;;;;;2.82;74.02;102498.56;5022183;27;19914;-69
2022/01/26 05:06:14;;;;;;;;;;;;;;;2.91;73.69;102501.75;5030481;27;19904;-67
2022/01/26 05:08:40;;;;;;;;;;;;;;;2.83;73.88;102508.97;5013721;27;19923;-70
2022/01/26 05:11:06;;;;;;;;;;;;;;;2.86;74.22;102508.03;5047622;27;19911;-67
2022/01/26 05:13:32;;;;;;;;;;;;;;;2.84;74.10;102509.84;5012608;27;19968;-67
2022/01/26 05:15:57;;;;;;;;;;;;;;;2.80;74.58;102522.13;5029700;27;20061;-69
2022/01/26 05:18:24;;;;;;;;;;;;;;;2.78;74.69;102531.78;5012944;27;19903;-69
2022/01/26 05:20:49;;;;;;;;;;;;;;;2.80;75.25;102523.91;5026713;27;20329;-68
2022/01/26 05:23:14;;;;;;;;;;;;;;;2.74;75.44;102536.22;5032283;27;19907;-69
2022/01/26 05:25:40;;;;;;;;;;;;;;;2.77;75.38;102532.69;5031665;27;20019;-66
2022/01/26 05:28:05;;;;;;;;;;;;;;;2.84;74.52;102530.75;5029913;27;20031;-67
2022/01/26 05:30:30;;;;;;;;;;;;;;;2.88;73.95;102527.16;5028320;27;20951;-69
2022/01/26 05:32:56;;;;;;;;;;;;;;;2.81;74.39;102538.69;5042351;27;19995;-68
2022/01/26 05:35:21;;;;;;;;;;;;;;;2.72;74.67;102548.50;5027891;27;20027;-69
2022/01/26 05:37:46;;;;;;;;;;;;;;;2.77;74.55;102553.59;5042942;27;19907;-69
2022/01/26 05:40:12;;;;;;;;;;;;;;;2.77;74.34;102547.50;5018838;27;19919;-69
2022/01/26 05:42:37;;;;;;;;;;;;;;;2.80;73.45;102558.72;5037294;27;19907;-70
2022/01/26 05:45:05;;;;;;;;;;;;;;;2.72;73.80;102545.88;5021091;27;21672;-69
2022/01/26 05:47:33;;;;;;;;;;;;;;;2.73;73.45;102544.13;5024406;27;19915;-71
2022/01/26 05:49:58;;;;;;;;;;;;;;;2.67;73.50;102542.53;5010875;27;20431;-70
2022/01/26 05:52:23;;;;;;;;;;;;;;;2.70;73.84;102547.66;5029225;27;20717;-70
2022/01/26 05:54:48;;;;;;;;;;;;;;;2.73;74.03;102550.19;5030979;27;19911;-69
2022/01/26 05:57:14;;;;;;;;;;;;;;;2.64;74.49;102550.44;5034404;27;19911;-69
2022/01/26 05:59:39;;;;;;;;;;;;;;;2.79;73.89;102541.31;5047678;27;19911;-68
2022/01/26 06:02:04;;;;;;;;;;;;;;;2.77;73.58;102524.84;5046069;27;19912;-69
2022/01/26 06:04:30;;;;;;;;;;;;;;;2.77;74.22;102518.75;5064288;27;19971;-70
2022/01/26 06:06:57;;;;;;;;;;;;;;;2.77;73.91;102519.59;5040786;27;20953;-69
2022/01/26 06:09:22;;;;;;;;;;;;;;;2.73;73.96;102513.59;5049550;27;20023;-67
2022/01/26 06:11:47;;;;;;;;;;;;;;;2.72;73.63;102517.13;5033438;27;19913;-71
2022/01/26 06:14:12;;;;;;;;;;;;;;;2.74;73.85;102517.94;5014801;27;19911;-70
2022/01/26 06:16:37;;;;;;;;;;;;;;;2.72;73.60;102529.31;5035452;27;19918;-70
2022/01/26 06:19:03;;;;;;;;;;;;;;;2.62;74.27;102531.31;5034557;27;19911;-70
2022/01/26 06:21:28;;;;;;;;;;;;;;;2.66;74.63;102521.66;5033126;27;19911;-71
2022/01/26 06:23:53;;;;;;;;;;;;;;;2.83;74.21;102529.03;5035429;27;19918;-69
2022/01/26 06:26:18;;;;;;;;;;;;;;;2.74;74.14;102524.94;5031673;27;20443;-71
2022/01/26 06:28:44;;;;;;;;;;;;;;;2.73;74.00;102500.53;5034782;27;20138;-69
2022/01/26 06:31:11;;;;;;;;;;;;;;;2.77;73.74;102508.31;5029875;27;19948;-70
2022/01/26 06:33:39;;;;;;;;;;;;;;;2.64;74.18;102508.63;5053332;27;19912;-70
2022/01/26 06:36:04;;;;;;;;;;;;;;;2.52;74.14;102485.44;5028215;27;19968;-70
2022/01/26 06:38:29;;;;;;;;;;;;;;;2.52;74.52;102499.34;5011897;27;19918;-69
2022/01/26 06:40:55;;;;;;;;;;;;;;;2.66;74.05;102500.75;5015556;27;20413;-70
2022/01/26 06:43:22;;;;;;;;;;;;;;;2.65;73.44;102512.97;5024934;27;20695;-69
2022/01/26 06:45:51;;;;;;;;;;;;;;;2.51;74.25;102533.38;5012473;27;20020;-70
2022/01/26 06:51:00;;;;;;;;;;;;;;;2.59;74.66;102518.34;5029270;27;19976;-68
2022/01/26 06:53:26;;;;;;;;;;;;;;;2.67;74.22;102529.44;5033740;27;20152;-69
2022/01/26 06:55:51;;;;;;;;;;;;;;;2.46;73.69;102527.41;5030504;27;20001;-69
2022/01/26 06:58:16;;;;;;;;;;;;;;;2.43;74.27;102535.34;5032130;27;19914;-69
2022/01/26 07:00:41;;;;;;;;;;;;;;;2.32;74.66;102523.38;5016637;27;19904;-69
2022/01/26 07:03:07;;;;;;;;;;;;;;;2.38;74.42;102544.16;5032528;27;19916;-70
2022/01/26 07:05:32;;;;;;;;;;;;;;;2.37;74.43;102536.34;5031540;27;20294;-67
2022/01/26 07:07:57;;;;;;;;;;;;;;;2.39;74.59;102530.16;5012668;27;19951;-68
2022/01/26 07:10:22;;;;;;;;;;;;;;;2.29;74.94;102526.09;5034389;27;19912;-67
2022/01/26 07:12:47;;;;;;;;;;;;;;;2.23;75.00;102529.72;5028226;27;20349;-68
2022/01/26 07:23:15;;;;;;;;;;;;;;;2.42;75.20;102512.72;5036200;27;20273;-67
2022/01/26 07:25:40;;;;;;;;;;;;;;;2.48;74.27;102507.31;5030375;27;20875;-67
2022/01/26 07:28:06;;;;;;;;;;;;;;;2.46;74.55;102509.13;5035735;27;20028;-69
2022/01/26 07:30:31;;;;;;;;;;;;;;;2.38;74.57;102507.59;5029837;27;20023;-69
2022/01/26 07:32:56;;;;;;;;;;;;;;;2.39;74.64;102514.50;5030728;27;19911;-69
2022/01/26 07:35:22;;;;;;;;;;;;;;;2.33;75.13;102519.03;5009805;28;20687;-68
2022/01/26 07:37:48;;;;;;;;;;;;;;;2.48;74.72;102525.59;5015722;27;19954;-67
2022/01/26 07:40:13;;;;;;;;;;;;;;;2.52;74.58;102530.69;5030473;27;19907;-69
2022/01/26 07:42:38;;;;;;;;;;;;;;;2.40;74.95;102525.81;5027931;27;19922;-69
2022/01/26 07:45:04;;;;;;;;;;;;;;;2.38;75.31;102528.47;5033537;27;20668;-70
2022/01/26 07:47:31;;;;;;;;;;;;;;;2.37;75.23;102526.75;5029178;27;19980;-68
2022/01/26 07:49:57;;;;;;;;;;;;;;;2.35;74.93;102538.13;5031086;27;19993;-67
2022/01/26 07:52:23;;;;;;;;;;;;;;;2.50;74.55;102542.13;5030449;27;20179;-67
2022/01/26 07:54:51;;;;;;;;;;;;;;;2.43;74.87;102544.03;5031200;27;19911;-67
2022/01/26 07:57:18;;;;;;;;;;;;;;;2.42;74.69;102533.63;5029329;27;19926;-66
2022/01/26 07:59:43;;;;;;;;;;;;;;;2.38;74.77;102538.94;5031822;27;20235;-67
2022/01/26 08:02:08;;;;;;;;;;;;;;;2.37;75.00;102523.31;5031574;27;20822;-67
2022/01/26 08:04:33;;;;;;;;;;;;;;;2.45;74.49;102530.91;5031611;27;20330;-68
2022/01/26 08:06:59;;;;;;;;;;;;;;;2.46;74.71;102538.72;5013637;27;20035;-66
2022/01/26 08:09:24;;;;;;;;;;;;;;;2.51;74.80;102549.03;5029029;27;19920;-69
2022/01/26 08:11:49;;;;;;;;;;;;;;;2.50;74.09;102552.56;5031060;27;20389;-68
2022/01/26 08:14:14;;;;;;;;;;;;;;;2.40;74.42;102550.19;5011878;27;20252;-69
2022/01/26 08:16:40;;;;;;;;;;;;;;;2.43;74.48;102556.25;5033762;27;20920;-69
2022/01/26 08:19:05;;;;;;;;;;;;;;;2.49;74.57;102558.69;5032363;27;20449;-68
2022/01/26 08:21:31;;;;;;;;;;;;;;;2.47;74.99;102553.50;5034073;27;20357;-69
2022/01/26 08:24:02;;;;;;;;;;;;;;;2.44;74.97;102531.81;5037763;27;19915;-68
2022/01/26 08:26:37;;;;;;;;;;;;;;;2.48;75.12;102523.00;5032061;27;20466;-67
2022/01/26 08:29:03;;;;;;;;;;;;;;;2.45;74.81;102550.06;5031882;27;19926;-67
2022/01/26 08:31:28;;;;;;;;;;;;;;;2.51;74.47;102556.88;5012086;27;19915;-67
2022/01/26 08:33:53;;;;;;;;;;;;;;;2.46;74.81;102543.94;5013410;28;20506;-67
2022/01/26 08:36:18;;;;;;;;;;;;;;;2.36;75.11;102545.94;5009254;28;19908;-68
2022/01/26 08:38:44;;;;;;;;;;;;;;;2.51;74.82;102549.03;5013657;28;20005;-67
2022/01/26 08:41:10;;;;;;;;;;;;;;;2.55;74.64;102567.25;5008773;28;19975;-67
2022/01/26 08:43:35;;;;;;;;;;;;;;;2.62;74.38;102562.69;5026413;27;19963;-68
2022/01/26 08:46:00;;;;;;;;;;;;;;;2.69;74.77;102553.81;5028817;27;20024;-66
2022/01/26 08:48:26;;;;;;;;;;;;;;;2.65;74.37;102566.97;5028489;27;19938;-68
2022/01/26 08:50:51;;;;;;;;;;;;;;;2.68;74.70;102562.53;5033398;27;19903;-67
2022/01/26 08:53:16;;;;;;;;;;;;;;;2.72;74.85;102545.00;5027419;27;19918;-69
2022/01/26 08:55:42;;;;;;;;;;;;;;;2.63;74.86;102548.72;5031734;27;20032;-68
2022/01/26 08:58:07;;;;;;;;;;;;;;;2.70;74.37;102570.34;5030644;27;20468;-67
2022/01/26 09:00:32;;;;;;;;;;;;;;;2.65;74.28;102574.81;5032710;27;19910;-68
2022/01/26 09:02:59;;;;;;;;;;;;;;;2.66;74.30;102585.22;5032845;27;19903;-68
2022/01/26 09:05:24;;;;;;;;;;;;;;;2.79;74.18;102584.91;5032582;27;21053;-68
2022/01/26 09:07:50;;;;;;;;;;;;;;;2.69;73.75;102585.19;5017611;27;19924;-68
2022/01/26 09:10:15;;;;;;;;;;;;;;;2.74;74.25;102571.97;5011848;27;19911;-67
2022/01/26 09:12:42;;;;;;;;;;;;;;;2.91;73.37;102555.84;5012584;28;20300;-69
2022/01/26 09:15:09;;;;;;;;;;;;;;;2.88;73.84;102551.53;4992041;28;19915;-67
2022/01/26 09:17:35;;;;;;;;;;;;;;;2.85;74.05;102562.09;5007818;28;19904;-68
2022/01/26 09:20:02;;;;;;;;;;;;;;;2.80;73.50;102576.19;5017042;27;20689;-68
2022/01/26 09:22:28;;;;;;;;;;;;;;;2.79;74.11;102579.69;5034664;27;20087;-68
2022/01/26 09:24:53;;;;;;;;;;;;;;;2.84;73.78;102589.13;5042969;27;19971;-69
2022/01/26 09:27:18;;;;;;;;;;;;;;;2.69;74.13;102582.56;5042454;27;20231;-68
2022/01/26 09:29:44;;;;;;;;;;;;;;;2.78;74.56;102584.06;5024837;27;19911;-68
2022/01/26 09:32:09;;;;;;;;;;;;;;;2.80;74.06;102582.25;5024256;27;20013;-68
2022/01/26 09:34:37;;;;;;;;;;;;;;;2.88;74.26;102596.00;5022767;27;20016;-67
2022/01/26 09:37:03;;;;;;;;;;;;;;;2.86;74.99;102587.34;5041365;27;19908;-69
2022/01/26 09:39:29;;;;;;;;;;;;;;;2.90;75.26;102582.88;5042888;27;20494;-69
2022/01/26 09:41:54;;;;;;;;;;;;;;;2.91;74.39;102584.59;5025075;27;20686;-67
2022/01/26 09:44:19;;;;;;;;;;;;;;;2.84;74.79;102588.28;5040702;27;20834;-69
2022/01/26 09:46:44;;;;;;;;;;;;;;;2.86;75.11;102599.53;5044418;27;20967;-67
2022/01/26 09:49:10;;;;;;;;;;;;;;;2.75;75.39;102598.06;5026071;27;20421;-67
2022/01/26 09:51:41;;;;;;;;;;;;;;;2.75;75.94;102595.47;5044267;27;19975;-67
2022/01/26 09:54:09;;;;;;;;;;;;;;;2.78;76.57;102593.66;5045302;27;19911;-68
2022/01/26 09:56:35;;;;;;;;;;;;;;;2.96;75.57;102589.69;5044311;27;19991;-67
2022/01/26 09:59:00;;;;;;;;;;;;;;;2.85;75.83;102590.84;5025926;27;19915;-68
2022/01/26 10:01:25;;;;;;;;;;;;;;;2.85;76.06;102595.19;5045289;27;20122;-69
2022/01/26 10:03:51;;;;;;;;;;;;;;;2.89;76.98;102600.31;5026350;27;19915;-69
2022/01/26 10:06:18;;;;;;;;;;;;;;;2.85;76.68;102603.03;5024552;27;19911;-67
2022/01/26 10:19:03;;;;;;;;;;;;;;;2.77;77.48;102591.97;5060574;27;19904;-68
2022/01/26 10:21:28;;;;;;;;;;;;;;;2.86;77.69;102586.47;5061809;27;20064;-67
2022/01/26 10:23:54;;;;;;;;;;;;;;;2.80;78.24;102578.81;5046750;27;20665;-68
2022/01/26 10:26:20;;;;;;;;;;;;;;;2.81;78.98;102583.13;5021307;27;19964;-68
2022/01/26 10:28:45;;;;;;;;;;;;;;;2.83;78.68;102576.94;5029149;27;20797;-68
2022/01/26 10:31:14;;;;;;;;;;;;;;;2.83;78.39;102582.16;5038197;27;20330;-68
2022/01/26 10:33:39;;;;;;;;;;;;;;;2.81;79.05;102586.59;5029049;27;19918;-68
2022/01/26 10:36:04;;;;;;;;;;;;;;;2.86;78.37;102587.34;5046384;27;20393;-68
2022/01/26 10:38:30;;;;;;;;;;;;;;;2.72;79.10;102587.72;5041176;27;19918;-67
2022/01/26 10:40:55;;;;;;;;;;;;;;;2.84;78.91;102576.06;5040911;27;19903;-69
2022/01/26 10:43:21;;;;;;;;;;;;;;;2.83;79.56;102578.72;5033361;27;19948;-68
2022/01/26 10:46:08;;;;;;;;;;;;;;;2.83;79.44;102581.31;5029430;28;20558;-69
2022/01/26 10:53:40;;;;;;;;;;;;;;;2.91;79.59;102574.97;5024696;28;19956;-68
2022/01/26 10:56:05;;;;;;;;;;;;;;;2.87;79.06;102577.72;5019445;28;19972;-67
2022/01/26 10:58:31;;;;;;;;;;;;;;;2.86;79.43;102571.66;5021474;28;19908;-68
2022/01/26 11:00:56;;;;;;;;;;;;;;;2.96;79.61;102561.81;5021003;28;20443;-67
2022/01/26 11:03:21;;;;;;;;;;;;;;;2.86;79.14;102545.50;5009768;27;19949;-68
2022/01/26 11:05:46;;;;;;;;;;;;;;;2.87;79.76;102552.44;5042944;27;20468;-66
2022/01/26 11:08:12;;;;;;;;;;;;;;;2.88;79.21;102548.94;5038500;28;19935;-69
2022/01/26 11:10:38;;;;;;;;;;;;;;;2.89;78.98;102549.78;5024904;27;19977;-66
2022/01/26 11:13:03;;;;;;;;;;;;;;;2.80;78.94;102563.13;5036563;27;19957;-70
2022/01/26 11:15:28;;;;;;;;;;;;;;;2.82;79.74;102563.91;5040061;28;20073;-69
2022/01/26 11:18:03;;;;;;;;;;;;;;;2.90;79.44;102567.19;5019087;28;19911;-69
2022/01/26 11:20:34;;;;;;;;;;;;;;;3.05;79.36;102561.53;5037156;28;19912;-69
2022/01/26 11:23:00;;;;;;;;;;;;;;;3.02;78.93;102559.00;5037105;27;19929;-68
2022/01/26 11:25:29;;;;;;;;;;;;;;;2.95;78.72;102560.09;5022298;27;19957;-68
2022/01/26 11:27:54;;;;;;;;;;;;;;;2.90;78.52;102567.19;5028712;27;19950;-69
2022/01/26 11:30:26;;;;;;;;;;;;;;;2.94;78.42;102570.59;5022340;28;20721;-69
2022/01/26 11:32:51;;;;;;;;;;;;;;;2.97;78.03;102583.56;5002077;28;20402;-67
2022/01/26 11:35:17;;;;;;;;;;;;;;;2.88;78.15;102582.91;5051990;27;19904;-67
2022/01/26 11:37:48;;;;;;;;;;;;;;;2.98;79.20;102586.13;5020722;28;19916;-67
2022/01/26 11:46:04;;;;;;;;;;;;;;;3.14;77.94;102585.72;5037811;27;20379;-67
2022/01/26 11:48:30;;;;;;;;;;;;;;;3.05;78.68;102592.06;5028369;27;20571;-67
2022/01/26 11:50:59;;;;;;;;;;;;;;;3.06;78.42;102592.03;5033328;27;19911;-69
2022/01/26 11:53:24;;;;;;;;;;;;;;;2.89;78.77;102592.50;5026456;27;19912;-68
2022/01/26 11:55:52;;;;;;;;;;;;;;;2.77;79.15;102586.72;5045650;27;19910;-66
2022/01/26 11:58:18;;;;;;;;;;;;;;;2.74;79.71;102577.22;5046419;27;19948;-67
2022/01/26 12:01:08;;;;;;;;;;;;;;;2.68;79.83;102577.34;5064523;27;19918;-67
2022/01/26 12:03:35;;;;;;;;;;;;;;;2.64;80.58;102576.59;5046139;27;19912;-67
2022/01/26 12:06:00;;;;;;;;;;;;;;;2.70;80.63;102576.41;5061045;27;19912;-69
2022/01/26 12:08:26;;;;;;;;;;;;;;;2.73;80.90;102575.47;5030166;27;20315;-67
2022/01/26 12:10:51;;;;;;;;;;;;;;;2.74;80.37;102572.81;5026267;27;20336;-66
2022/01/26 12:13:20;;;;;;;;;;;;;;;2.77;80.46;102571.03;5044636;27;19899;-69
2022/01/26 12:15:50;;;;;;;;;;;;;;;2.88;80.79;102564.63;5058841;27;19907;-68
2022/01/26 12:35:16;;;;;;;;;;;;;;;2.99;79.44;102577.41;4968117;27;19931;-66
2022/01/26 12:38:07;;;;;;;;;;;;;;;2.85;79.44;102569.94;5027801;27;20085;-67
2022/01/26 12:43:16;;;;;;;;;;;;;;;2.82;79.88;102564.78;5046875;27;19906;-68
2022/01/26 12:45:41;;;;;;;;;;;;;;;2.87;80.12;102556.81;5046354;27;20894;-67
2022/01/26 12:48:07;;;;;;;;;;;;;;;2.87;80.75;102562.03;5040680;27;20353;-68
2022/01/26 12:50:32;;;;;;;;;;;;;;;2.92;79.70;102534.03;5033201;27;19918;-67
2022/01/26 12:52:58;;;;;;;;;;;;;;;2.86;79.42;102535.06;5010140;27;19907;-66
2022/01/26 12:55:30;;;;;;;;;;;;;;;2.85;80.07;102538.56;5050938;27;19919;-68
2022/01/26 12:57:56;;;;;;;;;;;;;;;2.82;80.69;102536.03;5018796;27;20633;-66
2022/01/26 13:00:23;;;;;;;;;;;;;;;2.94;80.61;102531.38;5032946;27;19922;-67
2022/01/26 13:02:48;;;;;;;;;;;;;;;2.98;79.98;102533.84;5017651;27;19915;-68
2022/01/26 13:05:15;;;;;;;;;;;;;;;3.01;79.89;102538.13;5031923;27;19964;-66
2022/01/26 13:07:41;;;;;;;;;;;;;;;2.98;78.58;102526.00;5031010;27;19980;-67
2022/01/26 13:10:15;;;;;;;;;;;;;;;3.01;78.66;102525.06;5034003;27;20581;-67
2022/01/26 13:12:41;;;;;;;;;;;;;;;3.01;78.70;102528.50;5032257;27;19959;-66
2022/01/26 13:15:44;;;;;;;;;;;;;;;2.99;78.72;102526.84;5050139;27;19934;-67
2022/01/26 13:18:10;;;;;;;;;;;;;;;2.93;78.51;102530.47;5014443;27;19918;-67
2022/01/26 13:21:03;;;;;;;;;;;;;;;2.88;79.05;102535.00;5021003;27;19911;-67
2022/01/26 13:23:43;;;;;;;;;;;;;;;2.89;79.09;102534.97;5044011;27;19911;-67
2022/01/26 13:29:13;;;;;;;;;;;;;;;3.04;77.99;102528.41;5030728;27;19924;-68
2022/01/26 13:37:24;;;;;;;;;;;;;;;2.84;78.79;102522.91;5030727;27;19911;-66
2022/01/26 13:50:00;;;;;;;;;;;;;;;2.76;79.27;102499.59;5020759;27;20065;-66
2022/01/26 13:52:36;;;;;;;;;;;;;;;2.83;79.33;102497.66;5051870;27;20533;-68
2022/01/26 14:00:14;;;;;;;;;;;;;;;2.86;79.16;102500.19;5035453;27;20671;-67
2022/01/26 14:02:39;;;;;;;;;;;;;;;2.79;79.07;102494.25;5015487;27;19912;-69
2022/01/26 14:05:05;;;;;;;;;;;;;;;2.73;79.17;102476.16;5053613;27;19967;-68
2022/01/26 14:07:30;;;;;;;;;;;;;;;2.81;79.43;102479.41;5030446;27;19908;-67
2022/01/26 14:09:55;;;;;;;;;;;;;;;2.74;79.34;102477.88;5032876;27;19956;-67
2022/01/26 14:12:26;;;;;;;;;;;;;;;2.88;78.87;102480.09;5031767;27;20011;-66
2022/01/26 14:14:55;;;;;;;;;;;;;;;2.93;78.42;102478.19;5033720;27;20444;-68
2022/01/26 14:17:33;;;;;;;;;;;;;;;2.96;78.31;102482.47;5052691;27;20170;-67
2022/01/26 14:22:33;;;;;;;;;;;;;;;2.86;78.60;102487.09;5052026;27;20013;-67
2022/01/26 14:25:26;;;;;;;;;;;;;;;2.84;78.54;102484.53;5017967;27;19919;-66
2022/01/26 14:27:55;;;;;;;;;;;;;;;2.85;78.83;102477.53;5016671;28;20226;-66
2022/01/26 14:50:58;;;;;;;;;;;;;;;2.97;78.33;102473.75;5050192;27;19976;-69
2022/01/26 15:08:44;;;;;;;;;;;;;;;2.89;79.36;102482.66;5043311;27;19918;-68
2022/01/26 15:22:13;;;;;;;;;;;;;;;2.92;79.68;102452.97;5046103;27;20157;-68
2022/01/26 15:32:48;;;;;;;;;;;;;;;2.79;81.18;102473.34;5043052;27;19910;-69
2022/01/26 15:50:47;;;;;;;;;;;;;;;2.77;80.25;102475.16;5048246;27;20993;-68
2022/01/26 16:44:20;;;;;;;;;;;;;;;2.67;78.82;102465.88;5041916;27;20337;-69
2022/01/26 18:05:59;;;;;;;;;;;;;;;2.67;78.78;102447.56;5076970;27;19918;-67
2022/01/26 18:15:40;;;;;;;;;;;;;;;2.70;78.90;102450.09;5059011;27;19979;-68
2022/01/26 18:26:44;;;;;;;;;;;;;;;2.71;79.01;102429.13;5056703;27;20363;-69
2022/01/26 18:32:08;;;;;;;;;;;;;;;2.48;80.03;102413.25;5045322;27;19947;-68
2022/01/26 18:40:29;;;;;;;;;;;;;;;2.72;79.46;102407.34;5050671;27;20517;-68
2022/01/26 18:51:01;;;;;;;;;;;;;;;2.84;78.48;102413.09;5044969;27;19914;-68
2022/01/26 18:53:26;;;;;;;;;;;;;;;2.84;78.34;102408.72;5057515;27;20694;-68
2022/01/26 18:55:52;;;;;;;;;;;;;;;2.79;78.75;102401.91;5059224;27;19917;-69
2022/01/26 18:58:17;;;;;;;;;;;;;;;2.77;78.90;102408.97;5036743;27;19919;-70
2022/01/26 19:00:44;;;;;;;;;;;;;;;2.81;78.70;102402.75;5021005;27;20873;-68
2022/01/26 19:03:10;;;;;;;;;;;;;;;2.78;78.87;102410.66;5023228;27;19945;-68
2022/01/26 19:05:35;;;;;;;;;;;;;;;2.76;78.63;102408.09;5053029;27;20289;-67
2022/01/26 19:08:00;;;;;;;;;;;;;;;2.64;78.77;102398.00;5041665;27;19986;-68
2022/01/26 19:10:26;;;;;;;;;;;;;;;2.78;78.34;102390.63;5062163;27;20043;-69
2022/01/26 19:12:52;;;;;;;;;;;;;;;2.67;78.65;102390.91;5041349;27;20028;-69
2022/01/26 19:15:21;;;;;;;;;;;;;;;2.57;79.08;102389.50;5042442;27;20011;-69
2022/01/26 19:25:27;;;;;;;;;;;;;;;2.83;78.23;102388.69;5062371;27;21056;-70
2022/01/26 19:46:29;;;;;;;;;;;;;;;2.80;79.29;102408.88;5036862;27;19980;-68